Aquilla, Alabama
Current Conditions -  °F | °C
As of 10:58 AM on Wednesday 26 Nov 2014 (Local Time) from KMEI Reporting Station
Clear Clear  
Wind Chill: 53°   Ceiling: Unl
Heat Index: 53°   Visibility: 10mi
Dew Point: 23°   Wind: 5mph
Humidity: 31%   Direction: 180°S
Pressure: 30.21"   Gusts: NA
Location:  31.6272°N, 88.354°W
Report Text: KMEI 261658Z 18004KT 10SM CLR 12/M05 A3021 RMK AO2 SLP230 T01171050
Loading
Personal Weather Stations






























Interactive Weather Map New forecast layout! Learn more

10-Day Weather Forecast

Advertisements
Track Severe Weather on mobile